Aigen Im Ennstal, Austria
Current Conditions -  °F | °C
As of 9:50 PM on Friday 28 Nov 2014 (Local Time) from LOXZ Reporting Station
Overcast Overcast  
Wind Chill: 36°   Ceiling: 400
Heat Index: 36°   Visibility: 5mi
Dew Point: 36°   Wind: 1mph
Humidity: 100%   Direction: 360°N
Pressure: 30"   Gusts: NA
Location:  47.52°N, 14.14°E
Report Text: LOXZ 281950Z 36001KT 8000 FEW002ST OVC004ST 02/02 Q1016 RMKOVC
Loading
Personal Weather Stations






























Interactive Weather Map New forecast layout! Learn more

10-Day Weather Forecast

Advertisements
Track Severe Weather on mobile